sensor_id;sensor_type;location;lat;lon;timestamp;P1;durP1;ratioP1;P2;durP2;ratioP2
47960;SDS011;33721;48.852;9.936;2023-01-08T00:00:49;45.88;;;17.73;;
47960;SDS011;33721;48.852;9.936;2023-01-08T00:03:14;41.60;;;17.15;;
47960;SDS011;33721;48.852;9.936;2023-01-08T00:05:40;41.22;;;17.73;;
47960;SDS011;33721;48.852;9.936;2023-01-08T00:08:08;39.42;;;17.23;;
47960;SDS011;33721;48.852;9.936;2023-01-08T00:10:34;37.70;;;16.42;;
47960;SDS011;33721;48.852;9.936;2023-01-08T00:13:01;37.45;;;16.38;;
47960;SDS011;33721;48.852;9.936;2023-01-08T00:15:27;40.35;;;16.60;;
47960;SDS011;33721;48.852;9.936;2023-01-08T00:17:54;42.15;;;17.38;;
47960;SDS011;33721;48.852;9.936;2023-01-08T00:20:20;38.92;;;16.67;;
47960;SDS011;33721;48.852;9.936;2023-01-08T00:22:49;37.17;;;15.82;;
47960;SDS011;33721;48.852;9.936;2023-01-08T00:25:15;37.03;;;15.95;;
47960;SDS011;33721;48.852;9.936;2023-01-08T00:27:42;39.25;;;16.67;;
47960;SDS011;33721;48.852;9.936;2023-01-08T00:30:08;44.35;;;16.65;;
47960;SDS011;33721;48.852;9.936;2023-01-08T00:32:34;36.63;;;15.65;;
47960;SDS011;33721;48.852;9.936;2023-01-08T00:35:00;38.13;;;16.80;;
47960;SDS011;33721;48.852;9.936;2023-01-08T00:37:26;37.85;;;16.13;;
47960;SDS011;33721;48.852;9.936;2023-01-08T00:39:52;37.65;;;15.48;;
47960;SDS011;33721;48.852;9.936;2023-01-08T00:42:18;38.90;;;16.08;;
47960;SDS011;33721;48.852;9.936;2023-01-08T00:44:43;39.72;;;17.48;;
47960;SDS011;33721;48.852;9.936;2023-01-08T00:47:09;37.22;;;16.23;;
47960;SDS011;33721;48.852;9.936;2023-01-08T00:49:35;36.95;;;16.15;;
47960;SDS011;33721;48.852;9.936;2023-01-08T00:52:01;36.92;;;16.48;;
47960;SDS011;33721;48.852;9.936;2023-01-08T00:54:26;38.95;;;16.13;;
47960;SDS011;33721;48.852;9.936;2023-01-08T00:56:55;36.20;;;15.73;;
47960;SDS011;33721;48.852;9.936;2023-01-08T00:59:21;39.42;;;15.35;;
47960;SDS011;33721;48.852;9.936;2023-01-08T01:01:47;36.97;;;15.48;;
47960;SDS011;33721;48.852;9.936;2023-01-08T01:04:12;41.78;;;17.23;;
47960;SDS011;33721;48.852;9.936;2023-01-08T01:06:39;35.42;;;15.88;;
47960;SDS011;33721;48.852;9.936;2023-01-08T01:09:05;42.65;;;16.83;;
47960;SDS011;33721;48.852;9.936;2023-01-08T01:11:32;34.70;;;16.10;;
47960;SDS011;33721;48.852;9.936;2023-01-08T01:13:57;37.88;;;15.80;;
47960;SDS011;33721;48.852;9.936;2023-01-08T01:16:23;33.83;;;15.13;;
47960;SDS011;33721;48.852;9.936;2023-01-08T01:18:49;40.15;;;16.38;;
47960;SDS011;33721;48.852;9.936;2023-01-08T01:21:20;35.97;;;15.65;;
47960;SDS011;33721;48.852;9.936;2023-01-08T01:23:47;32.72;;;15.43;;
47960;SDS011;33721;48.852;9.936;2023-01-08T01:26:17;32.70;;;14.90;;
47960;SDS011;33721;48.852;9.936;2023-01-08T01:28:45;34.88;;;15.45;;
47960;SDS011;33721;48.852;9.936;2023-01-08T01:31:12;33.83;;;14.00;;
47960;SDS011;33721;48.852;9.936;2023-01-08T01:33:38;34.58;;;15.02;;
47960;SDS011;33721;48.852;9.936;2023-01-08T01:36:05;38.28;;;15.52;;
47960;SDS011;33721;48.852;9.936;2023-01-08T01:38:30;38.38;;;16.23;;
47960;SDS011;33721;48.852;9.936;2023-01-08T01:40:56;34.22;;;15.10;;
47960;SDS011;33721;48.852;9.936;2023-01-08T01:43:35;32.33;;;14.75;;
47960;SDS011;33721;48.852;9.936;2023-01-08T01:46:17;29.77;;;13.90;;
47960;SDS011;33721;48.852;9.936;2023-01-08T01:48:49;31.30;;;13.70;;
47960;SDS011;33721;48.852;9.936;2023-01-08T01:51:17;33.30;;;15.05;;
47960;SDS011;33721;48.852;9.936;2023-01-08T01:53:44;30.75;;;13.45;;
47960;SDS011;33721;48.852;9.936;2023-01-08T01:56:10;31.30;;;13.88;;
47960;SDS011;33721;48.852;9.936;2023-01-08T01:58:36;34.72;;;14.85;;
47960;SDS011;33721;48.852;9.936;2023-01-08T02:01:03;28.95;;;13.48;;
47960;SDS011;33721;48.852;9.936;2023-01-08T02:03:38;30.40;;;12.82;;
47960;SDS011;33721;48.852;9.936;2023-01-08T02:14:19;30.17;;;12.45;;
47960;SDS011;33721;48.852;9.936;2023-01-08T02:16:56;29.98;;;12.88;;
47960;SDS011;33721;48.852;9.936;2023-01-08T02:20:11;32.22;;;12.73;;
47960;SDS011;33721;48.852;9.936;2023-01-08T02:22:23;29.90;;;12.52;;
47960;SDS011;33721;48.852;9.936;2023-01-08T02:27:18;28.45;;;12.80;;
47960;SDS011;33721;48.852;9.936;2023-01-08T02:29:46;33.10;;;13.20;;
47960;SDS011;33721;48.852;9.936;2023-01-08T02:32:12;36.65;;;13.30;;
47960;SDS011;33721;48.852;9.936;2023-01-08T02:34:38;37.88;;;14.23;;
47960;SDS011;33721;48.852;9.936;2023-01-08T02:37:03;35.33;;;14.10;;
47960;SDS011;33721;48.852;9.936;2023-01-08T02:47:40;38.85;;;14.93;;
47960;SDS011;33721;48.852;9.936;2023-01-08T02:50:15;38.47;;;14.55;;
47960;SDS011;33721;48.852;9.936;2023-01-08T02:52:54;35.80;;;14.18;;
47960;SDS011;33721;48.852;9.936;2023-01-08T02:55:25;35.22;;;14.02;;
47960;SDS011;33721;48.852;9.936;2023-01-08T02:57:54;30.20;;;14.68;;
47960;SDS011;33721;48.852;9.936;2023-01-08T03:00:20;34.90;;;14.70;;
47960;SDS011;33721;48.852;9.936;2023-01-08T03:02:47;32.65;;;14.10;;
47960;SDS011;33721;48.852;9.936;2023-01-08T03:05:23;35.80;;;14.20;;
47960;SDS011;33721;48.852;9.936;2023-01-08T03:07:50;32.08;;;13.68;;
47960;SDS011;33721;48.852;9.936;2023-01-08T03:10:17;33.92;;;13.68;;
47960;SDS011;33721;48.852;9.936;2023-01-08T03:12:50;30.95;;;12.75;;
47960;SDS011;33721;48.852;9.936;2023-01-08T03:15:53;20.48;;;9.60;;
47960;SDS011;33721;48.852;9.936;2023-01-08T03:18:14;26.92;;;12.07;;
47960;SDS011;33721;48.852;9.936;2023-01-08T03:20:45;27.42;;;12.65;;
47960;SDS011;33721;48.852;9.936;2023-01-08T03:23:13;30.73;;;12.73;;
47960;SDS011;33721;48.852;9.936;2023-01-08T03:25:41;29.48;;;12.32;;
47960;SDS011;33721;48.852;9.936;2023-01-08T03:28:11;27.02;;;12.68;;
47960;SDS011;33721;48.852;9.936;2023-01-08T03:30:49;27.35;;;11.85;;
47960;SDS011;33721;48.852;9.936;2023-01-08T03:33:17;28.42;;;12.48;;
47960;SDS011;33721;48.852;9.936;2023-01-08T03:35:45;29.10;;;13.05;;
47960;SDS011;33721;48.852;9.936;2023-01-08T03:38:15;32.90;;;13.30;;
47960;SDS011;33721;48.852;9.936;2023-01-08T03:40:45;31.35;;;12.98;;
47960;SDS011;33721;48.852;9.936;2023-01-08T03:43:15;29.65;;;13.32;;
47960;SDS011;33721;48.852;9.936;2023-01-08T03:45:43;31.27;;;13.73;;
47960;SDS011;33721;48.852;9.936;2023-01-08T03:48:21;31.13;;;13.15;;
47960;SDS011;33721;48.852;9.936;2023-01-08T03:50:49;29.50;;;13.15;;
47960;SDS011;33721;48.852;9.936;2023-01-08T03:53:14;29.42;;;13.07;;
47960;SDS011;33721;48.852;9.936;2023-01-08T03:55:40;32.60;;;13.77;;
47960;SDS011;33721;48.852;9.936;2023-01-08T03:58:06;28.50;;;12.88;;
47960;SDS011;33721;48.852;9.936;2023-01-08T04:00:31;29.15;;;12.20;;
47960;SDS011;33721;48.852;9.936;2023-01-08T04:02:57;29.35;;;12.98;;
47960;SDS011;33721;48.852;9.936;2023-01-08T04:05:23;25.40;;;11.73;;
47960;SDS011;33721;48.852;9.936;2023-01-08T04:07:49;30.35;;;12.25;;
47960;SDS011;33721;48.852;9.936;2023-01-08T04:10:14;22.13;;;10.50;;
47960;SDS011;33721;48.852;9.936;2023-01-08T04:12:43;27.70;;;11.63;;
47960;SDS011;33721;48.852;9.936;2023-01-08T04:15:09;26.75;;;10.52;;
47960;SDS011;33721;48.852;9.936;2023-01-08T04:17:34;25.95;;;11.88;;
47960;SDS011;33721;48.852;9.936;2023-01-08T04:20:00;25.98;;;11.32;;
47960;SDS011;33721;48.852;9.936;2023-01-08T04:22:26;28.00;;;11.90;;
47960;SDS011;33721;48.852;9.936;2023-01-08T04:24:51;25.08;;;10.95;;
47960;SDS011;33721;48.852;9.936;2023-01-08T04:27:17;27.08;;;11.05;;
47960;SDS011;33721;48.852;9.936;2023-01-08T04:29:43;24.38;;;9.98;;
47960;SDS011;33721;48.852;9.936;2023-01-08T04:32:08;21.38;;;9.27;;
47960;SDS011;33721;48.852;9.936;2023-01-08T04:34:34;21.67;;;8.93;;
47960;SDS011;33721;48.852;9.936;2023-01-08T04:36:59;22.08;;;8.85;;
47960;SDS011;33721;48.852;9.936;2023-01-08T04:39:26;24.42;;;9.13;;
47960;SDS011;33721;48.852;9.936;2023-01-08T04:41:51;21.25;;;9.52;;
47960;SDS011;33721;48.852;9.936;2023-01-08T04:44:17;22.73;;;9.50;;
47960;SDS011;33721;48.852;9.936;2023-01-08T04:46:42;21.15;;;9.30;;
47960;SDS011;33721;48.852;9.936;2023-01-08T04:49:09;25.77;;;10.20;;
47960;SDS011;33721;48.852;9.936;2023-01-08T04:51:35;22.35;;;9.73;;
47960;SDS011;33721;48.852;9.936;2023-01-08T04:54:01;21.92;;;9.27;;
47960;SDS011;33721;48.852;9.936;2023-01-08T04:56:26;20.55;;;9.60;;
47960;SDS011;33721;48.852;9.936;2023-01-08T04:58:52;25.17;;;10.60;;
47960;SDS011;33721;48.852;9.936;2023-01-08T05:01:19;22.80;;;9.98;;
47960;SDS011;33721;48.852;9.936;2023-01-08T05:03:46;20.52;;;9.27;;
47960;SDS011;33721;48.852;9.936;2023-01-08T05:06:12;24.85;;;9.85;;
47960;SDS011;33721;48.852;9.936;2023-01-08T05:08:38;26.05;;;9.52;;
47960;SDS011;33721;48.852;9.936;2023-01-08T05:11:04;22.38;;;9.52;;
47960;SDS011;33721;48.852;9.936;2023-01-08T05:13:29;23.23;;;9.93;;
47960;SDS011;33721;48.852;9.936;2023-01-08T05:15:58;21.30;;;10.38;;
47960;SDS011;33721;48.852;9.936;2023-01-08T05:18:24;26.50;;;10.90;;
47960;SDS011;33721;48.852;9.936;2023-01-08T05:20:51;31.45;;;12.85;;
47960;SDS011;33721;48.852;9.936;2023-01-08T05:23:16;26.13;;;11.38;;
47960;SDS011;33721;48.852;9.936;2023-01-08T05:25:42;32.08;;;13.32;;
47960;SDS011;33721;48.852;9.936;2023-01-08T05:28:07;27.15;;;12.50;;
47960;SDS011;33721;48.852;9.936;2023-01-08T05:30:34;26.50;;;12.15;;
47960;SDS011;33721;48.852;9.936;2023-01-08T05:33:00;26.05;;;12.07;;
47960;SDS011;33721;48.852;9.936;2023-01-08T05:35:26;29.95;;;12.23;;
47960;SDS011;33721;48.852;9.936;2023-01-08T05:37:51;25.17;;;11.20;;
47960;SDS011;33721;48.852;9.936;2023-01-08T05:40:17;27.23;;;11.88;;
47960;SDS011;33721;48.852;9.936;2023-01-08T05:42:43;25.50;;;11.65;;
47960;SDS011;33721;48.852;9.936;2023-01-08T05:45:08;26.13;;;10.90;;
47960;SDS011;33721;48.852;9.936;2023-01-08T05:47:34;27.25;;;11.43;;
47960;SDS011;33721;48.852;9.936;2023-01-08T05:50:00;23.80;;;11.20;;
47960;SDS011;33721;48.852;9.936;2023-01-08T05:52:26;28.85;;;11.40;;
47960;SDS011;33721;48.852;9.936;2023-01-08T05:54:52;26.55;;;11.73;;
47960;SDS011;33721;48.852;9.936;2023-01-08T05:57:17;27.90;;;12.20;;
47960;SDS011;33721;48.852;9.936;2023-01-08T05:59:43;31.42;;;13.75;;
47960;SDS011;33721;48.852;9.936;2023-01-08T06:02:09;33.00;;;14.30;;
47960;SDS011;33721;48.852;9.936;2023-01-08T06:04:34;34.20;;;15.07;;
47960;SDS011;33721;48.852;9.936;2023-01-08T06:07:00;40.25;;;17.55;;
47960;SDS011;33721;48.852;9.936;2023-01-08T06:09:25;41.25;;;19.63;;
47960;SDS011;33721;48.852;9.936;2023-01-08T06:11:51;35.17;;;16.30;;
47960;SDS011;33721;48.852;9.936;2023-01-08T06:14:17;36.47;;;15.68;;
47960;SDS011;33721;48.852;9.936;2023-01-08T06:16:43;37.67;;;17.70;;
47960;SDS011;33721;48.852;9.936;2023-01-08T06:19:09;34.63;;;16.25;;
47960;SDS011;33721;48.852;9.936;2023-01-08T06:21:35;32.38;;;14.55;;
47960;SDS011;33721;48.852;9.936;2023-01-08T06:24:01;32.72;;;15.27;;
47960;SDS011;33721;48.852;9.936;2023-01-08T06:26:27;27.75;;;13.15;;
47960;SDS011;33721;48.852;9.936;2023-01-08T06:28:52;34.92;;;14.70;;
47960;SDS011;33721;48.852;9.936;2023-01-08T06:31:18;32.63;;;14.45;;
47960;SDS011;33721;48.852;9.936;2023-01-08T06:33:43;29.35;;;13.23;;
47960;SDS011;33721;48.852;9.936;2023-01-08T06:36:09;30.83;;;13.65;;
47960;SDS011;33721;48.852;9.936;2023-01-08T06:38:35;30.63;;;13.57;;
47960;SDS011;33721;48.852;9.936;2023-01-08T06:41:04;30.33;;;13.07;;
47960;SDS011;33721;48.852;9.936;2023-01-08T06:43:34;33.10;;;14.43;;
47960;SDS011;33721;48.852;9.936;2023-01-08T06:46:00;29.95;;;13.20;;
47960;SDS011;33721;48.852;9.936;2023-01-08T06:48:26;31.52;;;13.32;;
47960;SDS011;33721;48.852;9.936;2023-01-08T06:50:52;31.85;;;14.07;;
47960;SDS011;33721;48.852;9.936;2023-01-08T06:53:18;24.20;;;10.63;;
47960;SDS011;33721;48.852;9.936;2023-01-08T06:55:44;28.13;;;12.35;;
47960;SDS011;33721;48.852;9.936;2023-01-08T06:58:10;25.65;;;12.25;;
47960;SDS011;33721;48.852;9.936;2023-01-08T07:00:36;26.90;;;11.48;;
47960;SDS011;33721;48.852;9.936;2023-01-08T07:03:03;21.98;;;9.57;;
47960;SDS011;33721;48.852;9.936;2023-01-08T07:05:29;20.30;;;9.25;;
47960;SDS011;33721;48.852;9.936;2023-01-08T07:07:55;20.13;;;9.05;;
47960;SDS011;33721;48.852;9.936;2023-01-08T07:10:20;17.98;;;8.65;;
47960;SDS011;33721;48.852;9.936;2023-01-08T07:12:46;29.05;;;11.27;;
47960;SDS011;33721;48.852;9.936;2023-01-08T07:15:12;20.17;;;9.25;;
47960;SDS011;33721;48.852;9.936;2023-01-08T07:17:38;22.25;;;9.30;;
47960;SDS011;33721;48.852;9.936;2023-01-08T07:20:04;24.52;;;9.45;;
47960;SDS011;33721;48.852;9.936;2023-01-08T07:22:30;18.90;;;9.23;;
47960;SDS011;33721;48.852;9.936;2023-01-08T07:24:56;23.55;;;9.95;;
47960;SDS011;33721;48.852;9.936;2023-01-08T07:27:22;22.10;;;10.35;;
47960;SDS011;33721;48.852;9.936;2023-01-08T07:29:48;15.20;;;7.47;;
47960;SDS011;33721;48.852;9.936;2023-01-08T07:32:13;18.00;;;7.68;;
47960;SDS011;33721;48.852;9.936;2023-01-08T07:34:39;20.30;;;9.48;;
47960;SDS011;33721;48.852;9.936;2023-01-08T07:37:05;16.08;;;7.68;;
47960;SDS011;33721;48.852;9.936;2023-01-08T07:39:30;14.95;;;6.28;;
47960;SDS011;33721;48.852;9.936;2023-01-08T07:41:56;24.20;;;10.18;;
47960;SDS011;33721;48.852;9.936;2023-01-08T07:44:22;18.10;;;8.70;;
47960;SDS011;33721;48.852;9.936;2023-01-08T07:46:47;18.65;;;8.63;;
47960;SDS011;33721;48.852;9.936;2023-01-08T07:49:13;13.10;;;6.57;;
47960;SDS011;33721;48.852;9.936;2023-01-08T07:51:38;19.10;;;5.40;;
47960;SDS011;33721;48.852;9.936;2023-01-08T07:54:04;13.63;;;5.43;;
47960;SDS011;33721;48.852;9.936;2023-01-08T07:56:30;12.30;;;4.88;;
47960;SDS011;33721;48.852;9.936;2023-01-08T07:58:55;13.82;;;6.65;;
47960;SDS011;33721;48.852;9.936;2023-01-08T08:01:21;22.10;;;9.95;;
47960;SDS011;33721;48.852;9.936;2023-01-08T08:03:48;20.30;;;9.20;;
47960;SDS011;33721;48.852;9.936;2023-01-08T08:06:13;13.98;;;6.60;;
47960;SDS011;33721;48.852;9.936;2023-01-08T08:08:39;13.13;;;6.15;;
47960;SDS011;33721;48.852;9.936;2023-01-08T08:11:04;15.13;;;7.03;;
47960;SDS011;33721;48.852;9.936;2023-01-08T08:13:30;14.77;;;6.05;;
47960;SDS011;33721;48.852;9.936;2023-01-08T08:15:59;13.93;;;5.93;;
47960;SDS011;33721;48.852;9.936;2023-01-08T08:18:26;15.25;;;6.07;;
47960;SDS011;33721;48.852;9.936;2023-01-08T08:20:51;15.77;;;6.25;;
47960;SDS011;33721;48.852;9.936;2023-01-08T08:23:17;13.18;;;6.15;;
47960;SDS011;33721;48.852;9.936;2023-01-08T08:25:42;11.70;;;5.50;;
47960;SDS011;33721;48.852;9.936;2023-01-08T08:28:09;12.02;;;5.95;;
47960;SDS011;33721;48.852;9.936;2023-01-08T08:30:36;11.75;;;6.30;;
47960;SDS011;33721;48.852;9.936;2023-01-08T08:33:03;12.68;;;6.18;;
47960;SDS011;33721;48.852;9.936;2023-01-08T08:35:31;11.52;;;5.78;;
47960;SDS011;33721;48.852;9.936;2023-01-08T08:37:58;12.43;;;6.22;;
47960;SDS011;33721;48.852;9.936;2023-01-08T08:40:24;12.07;;;5.85;;
47960;SDS011;33721;48.852;9.936;2023-01-08T08:42:54;13.18;;;6.13;;
47960;SDS011;33721;48.852;9.936;2023-01-08T08:47:47;12.07;;;5.68;;
47960;SDS011;33721;48.852;9.936;2023-01-08T08:50:12;13.32;;;6.32;;
47960;SDS011;33721;48.852;9.936;2023-01-08T08:52:38;10.88;;;5.60;;
47960;SDS011;33721;48.852;9.936;2023-01-08T08:55:04;14.10;;;5.55;;
47960;SDS011;33721;48.852;9.936;2023-01-08T08:57:31;12.13;;;5.43;;
47960;SDS011;33721;48.852;9.936;2023-01-08T08:59:56;9.95;;;4.90;;
47960;SDS011;33721;48.852;9.936;2023-01-08T09:02:22;10.73;;;5.30;;
47960;SDS011;33721;48.852;9.936;2023-01-08T09:04:47;10.82;;;5.45;;
47960;SDS011;33721;48.852;9.936;2023-01-08T09:07:13;11.63;;;5.32;;
47960;SDS011;33721;48.852;9.936;2023-01-08T09:09:39;11.07;;;5.03;;
47960;SDS011;33721;48.852;9.936;2023-01-08T09:12:04;12.23;;;5.05;;
47960;SDS011;33721;48.852;9.936;2023-01-08T09:14:31;9.30;;;5.07;;
47960;SDS011;33721;48.852;9.936;2023-01-08T09:16:57;10.38;;;4.68;;
47960;SDS011;33721;48.852;9.936;2023-01-08T09:19:22;10.18;;;4.40;;
47960;SDS011;33721;48.852;9.936;2023-01-08T09:21:48;8.23;;;4.40;;
47960;SDS011;33721;48.852;9.936;2023-01-08T09:24:14;12.77;;;6.68;;
47960;SDS011;33721;48.852;9.936;2023-01-08T09:26:40;27.38;;;13.07;;
47960;SDS011;33721;48.852;9.936;2023-01-08T09:29:06;27.77;;;13.88;;
47960;SDS011;33721;48.852;9.936;2023-01-08T09:31:33;116.82;;;41.47;;
47960;SDS011;33721;48.852;9.936;2023-01-08T09:33:59;48.67;;;19.33;;
47960;SDS011;33721;48.852;9.936;2023-01-08T09:36:24;28.67;;;12.73;;
47960;SDS011;33721;48.852;9.936;2023-01-08T09:38:50;37.65;;;15.48;;
47960;SDS011;33721;48.852;9.936;2023-01-08T09:41:18;35.15;;;13.48;;
47960;SDS011;33721;48.852;9.936;2023-01-08T09:43:46;28.35;;;13.18;;
47960;SDS011;33721;48.852;9.936;2023-01-08T09:46:14;19.65;;;8.50;;
47960;SDS011;33721;48.852;9.936;2023-01-08T09:48:43;15.98;;;7.90;;
47960;SDS011;33721;48.852;9.936;2023-01-08T09:51:13;20.48;;;9.52;;
47960;SDS011;33721;48.852;9.936;2023-01-08T09:53:41;17.35;;;8.90;;
47960;SDS011;33721;48.852;9.936;2023-01-08T09:56:15;16.50;;;8.07;;
47960;SDS011;33721;48.852;9.936;2023-01-08T09:58:52;15.25;;;7.00;;
47960;SDS011;33721;48.852;9.936;2023-01-08T10:01:29;13.88;;;6.65;;
47960;SDS011;33721;48.852;9.936;2023-01-08T10:04:03;10.50;;;5.28;;
47960;SDS011;33721;48.852;9.936;2023-01-08T10:06:39;11.27;;;5.38;;
47960;SDS011;33721;48.852;9.936;2023-01-08T10:09:05;9.95;;;4.97;;
47960;SDS011;33721;48.852;9.936;2023-01-08T10:11:41;12.63;;;5.80;;
47960;SDS011;33721;48.852;9.936;2023-01-08T10:14:24;7.88;;;4.30;;
47960;SDS011;33721;48.852;9.936;2023-01-08T10:17:07;8.82;;;4.32;;
47960;SDS011;33721;48.852;9.936;2023-01-08T10:19:44;15.52;;;5.80;;
47960;SDS011;33721;48.852;9.936;2023-01-08T10:22:11;19.92;;;8.18;;
47960;SDS011;33721;48.852;9.936;2023-01-08T10:27:17;42.35;;;20.70;;
47960;SDS011;33721;48.852;9.936;2023-01-08T10:29:44;21.95;;;11.55;;
47960;SDS011;33721;48.852;9.936;2023-01-08T10:32:14;25.67;;;12.00;;
47960;SDS011;33721;48.852;9.936;2023-01-08T10:34:46;14.30;;;6.85;;
47960;SDS011;33721;48.852;9.936;2023-01-08T10:40:21;10.35;;;5.40;;
47960;SDS011;33721;48.852;9.936;2023-01-08T10:43:16;8.32;;;3.70;;
47960;SDS011;33721;48.852;9.936;2023-01-08T10:45:55;7.57;;;3.42;;
47960;SDS011;33721;48.852;9.936;2023-01-08T10:48:38;5.30;;;2.92;;
47960;SDS011;33721;48.852;9.936;2023-01-08T10:51:14;7.22;;;3.83;;
47960;SDS011;33721;48.852;9.936;2023-01-08T10:53:42;5.28;;;2.72;;
47960;SDS011;33721;48.852;9.936;2023-01-08T10:58:47;5.63;;;2.08;;
47960;SDS011;33721;48.852;9.936;2023-01-08T11:01:18;5.80;;;2.50;;
47960;SDS011;33721;48.852;9.936;2023-01-08T11:03:49;5.13;;;2.20;;
47960;SDS011;33721;48.852;9.936;2023-01-08T11:06:24;4.10;;;1.92;;
47960;SDS011;33721;48.852;9.936;2023-01-08T11:08:52;4.95;;;1.80;;
47960;SDS011;33721;48.852;9.936;2023-01-08T11:11:20;3.17;;;1.70;;
47960;SDS011;33721;48.852;9.936;2023-01-08T11:16:21;4.63;;;1.98;;
47960;SDS011;33721;48.852;9.936;2023-01-08T11:18:54;3.67;;;1.52;;
47960;SDS011;33721;48.852;9.936;2023-01-08T11:21:23;3.83;;;1.50;;
47960;SDS011;33721;48.852;9.936;2023-01-08T11:24:01;4.65;;;1.58;;
47960;SDS011;33721;48.852;9.936;2023-01-08T11:26:49;2.90;;;1.27;;
47960;SDS011;33721;48.852;9.936;2023-01-08T11:29:21;5.22;;;1.52;;
47960;SDS011;33721;48.852;9.936;2023-01-08T11:31:49;3.42;;;1.50;;
47960;SDS011;33721;48.852;9.936;2023-01-08T11:34:29;3.30;;;1.25;;
47960;SDS011;33721;48.852;9.936;2023-01-08T11:45:36;2.58;;;0.95;;
47960;SDS011;33721;48.852;9.936;2023-01-08T11:51:12;2.13;;;1.10;;
47960;SDS011;33721;48.852;9.936;2023-01-08T11:53:57;4.28;;;1.10;;
47960;SDS011;33721;48.852;9.936;2023-01-08T12:07:18;1.50;;;0.77;;
47960;SDS011;33721;48.852;9.936;2023-01-08T12:12:59;0.95;;;0.50;;
47960;SDS011;33721;48.852;9.936;2023-01-08T12:15:49;1.35;;;0.60;;
47960;SDS011;33721;48.852;9.936;2023-01-08T12:21:13;2.13;;;0.70;;
47960;SDS011;33721;48.852;9.936;2023-01-08T12:29:24;2.47;;;0.63;;
47960;SDS011;33721;48.852;9.936;2023-01-08T12:31:56;1.00;;;0.57;;
47960;SDS011;33721;48.852;9.936;2023-01-08T12:34:48;1.45;;;0.57;;
47960;SDS011;33721;48.852;9.936;2023-01-08T12:37:30;1.02;;;0.60;;
47960;SDS011;33721;48.852;9.936;2023-01-08T12:40:14;1.92;;;0.65;;
47960;SDS011;33721;48.852;9.936;2023-01-08T12:42:47;1.10;;;0.50;;
47960;SDS011;33721;48.852;9.936;2023-01-08T12:45:35;2.25;;;0.70;;
47960;SDS011;33721;48.852;9.936;2023-01-08T12:48:05;1.23;;;0.60;;
47960;SDS011;33721;48.852;9.936;2023-01-08T13:04:54;1.40;;;0.77;;
47960;SDS011;33721;48.852;9.936;2023-01-08T13:07:26;2.97;;;0.80;;
47960;SDS011;33721;48.852;9.936;2023-01-08T13:09:56;3.22;;;1.10;;
47960;SDS011;33721;48.852;9.936;2023-01-08T13:12:33;3.75;;;0.80;;
47960;SDS011;33721;48.852;9.936;2023-01-08T13:15:00;1.98;;;0.70;;
47960;SDS011;33721;48.852;9.936;2023-01-08T13:17:26;1.50;;;0.80;;
47960;SDS011;33721;48.852;9.936;2023-01-08T13:19:53;1.63;;;0.80;;
47960;SDS011;33721;48.852;9.936;2023-01-08T13:22:24;1.77;;;0.73;;
47960;SDS011;33721;48.852;9.936;2023-01-08T13:25:06;2.55;;;1.00;;
47960;SDS011;33721;48.852;9.936;2023-01-08T13:27:34;2.45;;;1.10;;
47960;SDS011;33721;48.852;9.936;2023-01-08T13:30:00;2.63;;;1.02;;
47960;SDS011;33721;48.852;9.936;2023-01-08T13:37:40;2.70;;;1.08;;
47960;SDS011;33721;48.852;9.936;2023-01-08T13:43:49;2.60;;;1.02;;
47960;SDS011;33721;48.852;9.936;2023-01-08T13:46:15;1.33;;;0.80;;
47960;SDS011;33721;48.852;9.936;2023-01-08T13:49:04;2.67;;;0.90;;
47960;SDS011;33721;48.852;9.936;2023-01-08T13:51:39;2.05;;;0.60;;
47960;SDS011;33721;48.852;9.936;2023-01-08T13:56:42;1.45;;;0.73;;
47960;SDS011;33721;48.852;9.936;2023-01-08T13:59:28;1.48;;;0.70;;
47960;SDS011;33721;48.852;9.936;2023-01-08T14:02:00;2.88;;;0.70;;
47960;SDS011;33721;48.852;9.936;2023-01-08T14:04:26;2.17;;;0.90;;
47960;SDS011;33721;48.852;9.936;2023-01-08T14:06:52;2.22;;;0.90;;
47960;SDS011;33721;48.852;9.936;2023-01-08T14:09:19;1.33;;;0.60;;
47960;SDS011;33721;48.852;9.936;2023-01-08T14:11:47;1.63;;;0.95;;
47960;SDS011;33721;48.852;9.936;2023-01-08T14:14:15;2.15;;;1.00;;
47960;SDS011;33721;48.852;9.936;2023-01-08T14:16:44;2.20;;;1.10;;
47960;SDS011;33721;48.852;9.936;2023-01-08T14:19:13;1.48;;;0.90;;
47960;SDS011;33721;48.852;9.936;2023-01-08T14:21:48;2.38;;;0.82;;
47960;SDS011;33721;48.852;9.936;2023-01-08T14:24:22;1.95;;;0.90;;
47960;SDS011;33721;48.852;9.936;2023-01-08T14:26:53;2.78;;;1.10;;
47960;SDS011;33721;48.852;9.936;2023-01-08T14:29:24;2.70;;;1.13;;
47960;SDS011;33721;48.852;9.936;2023-01-08T14:31:53;2.67;;;1.25;;
47960;SDS011;33721;48.852;9.936;2023-01-08T14:34:21;3.25;;;1.17;;
47960;SDS011;33721;48.852;9.936;2023-01-08T14:36:49;2.25;;;1.02;;
47960;SDS011;33721;48.852;9.936;2023-01-08T14:39:24;3.80;;;1.33;;
47960;SDS011;33721;48.852;9.936;2023-01-08T14:44:44;2.42;;;1.20;;
47960;SDS011;33721;48.852;9.936;2023-01-08T14:47:15;2.53;;;1.10;;
47960;SDS011;33721;48.852;9.936;2023-01-08T14:49:46;2.78;;;1.15;;
47960;SDS011;33721;48.852;9.936;2023-01-08T14:52:14;3.10;;;1.25;;
47960;SDS011;33721;48.852;9.936;2023-01-08T14:54:42;2.30;;;1.10;;
47960;SDS011;33721;48.852;9.936;2023-01-08T14:57:11;2.75;;;1.30;;
47960;SDS011;33721;48.852;9.936;2023-01-08T14:59:37;3.70;;;1.70;;
47960;SDS011;33721;48.852;9.936;2023-01-08T15:02:03;4.80;;;2.25;;
47960;SDS011;33721;48.852;9.936;2023-01-08T15:04:32;4.88;;;2.50;;
47960;SDS011;33721;48.852;9.936;2023-01-08T15:07:08;3.88;;;2.22;;
47960;SDS011;33721;48.852;9.936;2023-01-08T15:09:53;4.68;;;2.28;;
47960;SDS011;33721;48.852;9.936;2023-01-08T15:12:24;4.45;;;2.58;;
47960;SDS011;33721;48.852;9.936;2023-01-08T15:14:52;5.03;;;2.40;;
47960;SDS011;33721;48.852;9.936;2023-01-08T15:17:19;3.90;;;1.50;;
47960;SDS011;33721;48.852;9.936;2023-01-08T15:19:55;4.57;;;2.47;;
47960;SDS011;33721;48.852;9.936;2023-01-08T15:22:23;5.07;;;2.00;;
47960;SDS011;33721;48.852;9.936;2023-01-08T15:24:55;5.18;;;2.30;;
47960;SDS011;33721;48.852;9.936;2023-01-08T15:27:23;4.22;;;2.17;;
47960;SDS011;33721;48.852;9.936;2023-01-08T15:29:50;4.63;;;2.22;;
47960;SDS011;33721;48.852;9.936;2023-01-08T15:32:26;5.97;;;3.10;;
47960;SDS011;33721;48.852;9.936;2023-01-08T15:34:54;6.82;;;3.40;;
47960;SDS011;33721;48.852;9.936;2023-01-08T15:37:19;9.63;;;5.05;;
47960;SDS011;33721;48.852;9.936;2023-01-08T15:39:45;12.05;;;6.82;;
47960;SDS011;33721;48.852;9.936;2023-01-08T15:45:15;20.10;;;10.70;;
47960;SDS011;33721;48.852;9.936;2023-01-08T15:47:46;16.95;;;10.10;;
47960;SDS011;33721;48.852;9.936;2023-01-08T15:50:12;23.77;;;12.55;;
47960;SDS011;33721;48.852;9.936;2023-01-08T15:52:39;30.20;;;15.07;;
47960;SDS011;33721;48.852;9.936;2023-01-08T15:55:08;29.05;;;15.18;;
47960;SDS011;33721;48.852;9.936;2023-01-08T15:57:40;29.35;;;14.73;;
47960;SDS011;33721;48.852;9.936;2023-01-08T16:00:06;55.30;;;24.08;;
47960;SDS011;33721;48.852;9.936;2023-01-08T16:02:43;41.15;;;19.25;;
47960;SDS011;33721;48.852;9.936;2023-01-08T16:05:10;25.33;;;13.60;;
47960;SDS011;33721;48.852;9.936;2023-01-08T16:07:36;13.32;;;7.05;;
47960;SDS011;33721;48.852;9.936;2023-01-08T16:10:02;12.80;;;5.70;;
47960;SDS011;33721;48.852;9.936;2023-01-08T16:12:28;10.18;;;5.60;;
47960;SDS011;33721;48.852;9.936;2023-01-08T16:14:54;11.65;;;5.22;;
47960;SDS011;33721;48.852;9.936;2023-01-08T16:17:20;10.48;;;5.07;;